KFFA/FFA METAR and TAF weather

Enter ICAO airport designator
Station Type Date Time Source
KFFA METAR 2020/04/08 22:15 UTC NOAA

KFFA 082215Z AUTO 26009G15KT 10SM CLR 26/11 A2959 RMK AO2 T02550112


Station Type Date Time Source
KFFA Decoded METAR 2020/04/08 22:15 UTC NOAA

Kill Devil Hills, First Flight Airport, NC, United States (KFFA) 36-01N 075-40W
Apr 08, 2020 - 06:15 PM EDT / 2020.04.08 2215 UTC
Wind: from the W (260 degrees) at 10 MPH (9 KT) gusting to 17 MPH (15 KT):0
Visibility: 10 mile(s):0
Sky conditions: clear
Temperature: 77.9 F (25.5 C)
Dew Point: 52.2 F (11.2 C)
Relative Humidity: 40%
Pressure (altimeter): 29.59 in. Hg (1002 hPa)
ob: KFFA 082215Z AUTO 26009G15KT 10SM CLR 26/11 A2959 RMK AO2 T02550112
cycle: 22

Station Type Date Time Source
KFFA TAF UTC NOAA

Error!

Example: see airport list